createdAt,value
2022-10-18T00:01:10.702Z,99.20
2022-10-18T00:03:39.442Z,99.30
2022-10-18T00:06:10.057Z,99.30
2022-10-18T00:08:40.393Z,99.30
2022-10-18T00:11:08.766Z,99.40
2022-10-18T00:13:38.226Z,99.40
2022-10-18T00:16:12.360Z,99.40
2022-10-18T00:18:41.710Z,99.40
2022-10-18T00:21:13.487Z,99.40
2022-10-18T00:23:42.406Z,99.30
2022-10-18T00:26:20.580Z,99.20
2022-10-18T00:29:00.224Z,99.10
2022-10-18T00:31:34.802Z,99.10
2022-10-18T00:34:06.775Z,99.10
2022-10-18T00:36:36.210Z,99.10
2022-10-18T00:39:08.239Z,99.10
2022-10-18T00:41:39.307Z,99.20
2022-10-18T00:44:27.478Z,99.30
2022-10-18T00:47:06.010Z,99.50
2022-10-18T00:49:39.235Z,99.60
2022-10-18T00:52:22.325Z,99.70
2022-10-18T00:54:53.671Z,99.80
2022-10-18T00:57:22.415Z,99.90
2022-10-18T00:59:50.291Z,99.90
2022-10-18T01:02:19.421Z,99.90
2022-10-18T01:04:48.915Z,99.90
2022-10-18T01:07:42.875Z,99.90
2022-10-18T01:10:36.526Z,99.90
2022-10-18T01:13:19.832Z,99.90
2022-10-18T01:16:20.090Z,99.90
2022-10-18T01:18:53.285Z,99.90
2022-10-18T01:21:21.580Z,99.90
2022-10-18T01:24:02.284Z,99.90
2022-10-18T01:26:56.023Z,99.90
2022-10-18T01:30:03.483Z,99.90
2022-10-18T01:32:50.293Z,99.90
2022-10-18T01:35:33.672Z,99.90
2022-10-18T01:38:07.764Z,99.90
2022-10-18T01:40:37.718Z,99.90
2022-10-18T01:45:36.563Z,99.80
2022-10-18T01:48:05.379Z,99.60
2022-10-18T01:50:35.875Z,99.50
2022-10-18T01:53:04.394Z,99.30
2022-10-18T01:55:44.252Z,99.20
2022-10-18T01:58:43.705Z,99.10
2022-10-18T02:01:34.542Z,99.10
2022-10-18T02:04:21.966Z,99.00
2022-10-18T02:06:57.588Z,99.10
2022-10-18T02:09:43.616Z,99.00
2022-10-18T02:12:15.287Z,98.90
2022-10-18T02:14:46.729Z,98.70
2022-10-18T02:17:17.817Z,98.50
2022-10-18T02:19:51.767Z,98.40
2022-10-18T02:22:22.400Z,98.10
2022-10-18T02:24:54.645Z,97.80
2022-10-18T02:27:23.944Z,97.60
2022-10-18T02:29:52.184Z,97.40
2022-10-18T02:32:23.965Z,97.30
2022-10-18T02:35:21.064Z,97.30
2022-10-18T02:37:51.294Z,97.10
2022-10-18T02:40:20.225Z,97.00
2022-10-18T02:42:50.782Z,96.90
2022-10-18T02:45:19.098Z,96.70
2022-10-18T02:47:48.085Z,96.80
2022-10-18T02:50:16.415Z,96.80
2022-10-18T02:52:44.279Z,96.60
2022-10-18T02:55:12.931Z,96.60
2022-10-18T02:57:40.916Z,96.50
2022-10-18T03:00:10.137Z,96.40
2022-10-18T03:02:38.477Z,95.90
2022-10-18T03:05:06.832Z,95.30
2022-10-18T03:07:34.973Z,94.80
2022-10-18T03:10:03.626Z,94.00
2022-10-18T03:12:32.435Z,93.80
2022-10-18T03:15:00.823Z,93.70
2022-10-18T03:17:29.520Z,93.60
2022-10-18T03:19:58.292Z,93.40
2022-10-18T03:25:01.305Z,93.00
2022-10-18T03:27:29.355Z,92.80
2022-10-18T03:29:57.968Z,92.40
2022-10-18T03:32:26.080Z,92.30
2022-10-18T03:34:54.638Z,92.20
2022-10-18T03:37:23.277Z,91.90
2022-10-18T03:39:51.751Z,91.60
2022-10-18T03:42:19.966Z,91.30
2022-10-18T03:44:48.062Z,91.10
2022-10-18T03:47:16.423Z,91.00
2022-10-18T03:49:44.676Z,91.00
2022-10-18T03:52:13.389Z,90.90
2022-10-18T03:54:42.032Z,90.70
2022-10-18T03:57:10.615Z,90.60
2022-10-18T03:59:39.170Z,90.60
2022-10-18T04:02:07.545Z,90.50
2022-10-18T04:04:36.490Z,90.40
2022-10-18T04:07:05.001Z,90.00
2022-10-18T04:09:34.246Z,89.40
2022-10-18T04:12:02.508Z,89.50
2022-10-18T04:14:31.942Z,89.40
2022-10-18T04:17:00.532Z,88.50
2022-10-18T04:19:28.312Z,88.00
2022-10-18T04:21:56.955Z,87.50
2022-10-18T04:24:25.554Z,87.00
2022-10-18T04:26:53.716Z,87.00
2022-10-18T04:29:22.036Z,87.20
2022-10-18T04:31:50.787Z,87.60
2022-10-18T04:34:18.742Z,87.80
2022-10-18T04:36:47.018Z,88.40
2022-10-18T04:39:15.895Z,88.80
2022-10-18T04:41:45.007Z,89.20
2022-10-18T04:44:13.137Z,89.50
2022-10-18T04:46:42.002Z,89.50
2022-10-18T04:49:09.874Z,89.70
2022-10-18T04:51:38.422Z,89.50
2022-10-18T04:54:07.512Z,88.70
2022-10-18T04:56:36.410Z,88.20
2022-10-18T04:59:04.762Z,87.80
2022-10-18T05:01:33.227Z,87.40
2022-10-18T05:04:01.755Z,87.40
2022-10-18T05:06:30.294Z,87.20
2022-10-18T05:08:58.927Z,87.90
2022-10-18T05:11:27.207Z,87.50
2022-10-18T05:13:55.434Z,87.70
2022-10-18T05:16:24.041Z,87.90
2022-10-18T05:18:52.601Z,88.30
2022-10-18T05:21:21.558Z,88.60
2022-10-18T05:23:49.994Z,88.90
2022-10-18T05:26:18.333Z,89.10
2022-10-18T05:28:46.606Z,89.50
2022-10-18T05:31:15.469Z,89.70
2022-10-18T05:33:43.738Z,89.80
2022-10-18T05:36:12.450Z,89.90
2022-10-18T05:38:45.169Z,89.80
2022-10-18T05:41:14.391Z,90.00
2022-10-18T05:43:42.557Z,90.10
2022-10-18T05:46:15.628Z,90.00
2022-10-18T05:48:45.130Z,90.20
2022-10-18T05:51:19.366Z,90.10
2022-10-18T05:53:47.706Z,90.10
2022-10-18T05:56:15.819Z,90.00
2022-10-18T05:58:44.110Z,90.20
2022-10-18T06:01:12.281Z,90.00
2022-10-18T06:03:41.190Z,90.10
2022-10-18T06:06:14.462Z,90.10
2022-10-18T06:08:44.186Z,90.00
2022-10-18T06:11:19.832Z,89.80
2022-10-18T06:13:50.117Z,89.70
2022-10-18T06:16:21.715Z,89.30
2022-10-18T06:18:52.010Z,89.30
2022-10-18T06:21:20.654Z,89.00
2022-10-18T06:23:54.622Z,88.60
2022-10-18T06:26:23.283Z,88.50
2022-10-18T06:28:51.438Z,88.40
2022-10-18T06:31:21.316Z,88.30
2022-10-18T06:33:49.810Z,88.30
2022-10-18T06:36:20.252Z,88.30
2022-10-18T06:38:48.590Z,88.50
2022-10-18T06:41:20.966Z,88.20
2022-10-18T06:43:53.891Z,88.40
2022-10-18T06:46:22.084Z,88.60
2022-10-18T06:48:50.223Z,89.20
2022-10-18T06:51:18.953Z,89.60
2022-10-18T06:53:59.137Z,89.60
2022-10-18T06:56:36.233Z,89.40
2022-10-18T06:59:04.630Z,89.40
2022-10-18T07:01:32.983Z,89.50
2022-10-18T07:04:01.090Z,89.30
2022-10-18T07:06:29.721Z,89.20
2022-10-18T07:08:57.991Z,88.10
2022-10-18T07:11:27.606Z,86.60
2022-10-18T07:14:03.464Z,86.00
2022-10-18T07:16:33.025Z,86.50
2022-10-18T07:19:01.184Z,85.30
2022-10-18T07:21:29.572Z,85.50
2022-10-18T07:23:57.762Z,82.80
2022-10-18T07:26:31.604Z,81.90
2022-10-18T07:29:10.644Z,82.00
2022-10-18T07:31:39.646Z,82.10
2022-10-18T07:34:10.615Z,81.70
2022-10-18T07:36:38.742Z,81.70
2022-10-18T07:39:07.308Z,81.30
2022-10-18T07:41:36.114Z,80.90
2022-10-18T07:44:05.356Z,80.70
2022-10-18T07:46:34.372Z,80.70
2022-10-18T07:49:02.312Z,81.00
2022-10-18T07:51:33.194Z,80.80
2022-10-18T07:54:01.391Z,79.80
2022-10-18T07:56:29.768Z,78.80
2022-10-18T07:58:58.234Z,78.00
2022-10-18T08:01:26.800Z,77.70
2022-10-18T08:03:55.440Z,76.90
2022-10-18T08:06:24.537Z,75.70
2022-10-18T08:08:53.125Z,75.40
2022-10-18T08:11:24.287Z,76.00
2022-10-18T08:13:53.648Z,75.70
2022-10-18T08:16:24.669Z,76.50
2022-10-18T08:18:53.623Z,74.70
2022-10-18T08:21:22.484Z,73.70
2022-10-18T08:23:51.026Z,72.70
2022-10-18T08:26:21.344Z,72.50
2022-10-18T08:28:58.304Z,71.60
2022-10-18T08:31:38.159Z,70.60
2022-10-18T08:34:06.421Z,70.70
2022-10-18T08:36:34.579Z,72.80
2022-10-18T08:39:04.066Z,72.60
2022-10-18T08:41:37.979Z,73.10
2022-10-18T08:44:32.353Z,72.70
2022-10-18T08:47:07.491Z,72.00
2022-10-18T08:49:47.755Z,71.40
2022-10-18T08:53:14.400Z,72.00
2022-10-18T08:55:56.255Z,71.70
2022-10-18T08:58:31.307Z,70.90
2022-10-18T09:01:22.366Z,70.30
2022-10-18T09:04:18.280Z,70.00
2022-10-18T09:07:03.426Z,69.90
2022-10-18T09:10:03.377Z,69.80
2022-10-18T09:12:58.015Z,69.80
2022-10-18T09:15:41.425Z,69.30
2022-10-18T09:18:11.898Z,68.80
2022-10-18T09:20:57.851Z,68.40
2022-10-18T09:23:39.905Z,68.50
2022-10-18T09:26:19.023Z,67.90
2022-10-18T09:29:08.699Z,67.00
2022-10-18T09:32:05.362Z,66.20
2022-10-18T09:34:47.193Z,64.70
2022-10-18T09:37:19.525Z,64.60
2022-10-18T09:39:51.026Z,64.10
2022-10-18T09:42:27.233Z,64.70
2022-10-18T09:45:02.943Z,64.30
2022-10-18T09:47:35.292Z,65.40
2022-10-18T09:50:14.510Z,62.90
2022-10-18T09:52:54.433Z,63.00
2022-10-18T09:55:31.501Z,62.10
2022-10-18T09:58:03.218Z,61.30
2022-10-18T10:00:39.649Z,60.60
2022-10-18T10:03:17.821Z,60.40
2022-10-18T10:05:48.186Z,58.60
2022-10-18T10:08:16.242Z,55.90
2022-10-18T10:10:48.480Z,55.40
2022-10-18T10:13:26.639Z,56.00
2022-10-18T10:16:02.364Z,55.90
2022-10-18T10:18:34.495Z,55.00
2022-10-18T10:21:23.921Z,54.00
2022-10-18T10:23:59.758Z,52.80
2022-10-18T10:26:39.533Z,52.10
2022-10-18T10:29:46.226Z,52.20
2022-10-18T10:32:19.896Z,51.80
2022-10-18T10:34:50.845Z,52.10
2022-10-18T10:37:31.035Z,50.80
2022-10-18T10:40:28.670Z,50.00
2022-10-18T10:43:19.589Z,50.10
2022-10-18T10:46:14.773Z,50.30
2022-10-18T10:49:14.192Z,49.30
2022-10-18T10:52:09.116Z,47.90
2022-10-18T10:54:51.290Z,47.80
2022-10-18T10:57:30.003Z,48.60
2022-10-18T11:00:03.297Z,48.50
2022-10-18T11:02:35.558Z,47.70
2022-10-18T11:05:29.929Z,47.10
2022-10-18T11:08:03.074Z,47.30
2022-10-18T11:10:39.441Z,46.70
2022-10-18T11:13:29.789Z,47.30
2022-10-18T11:16:08.005Z,47.00
2022-10-18T11:18:38.536Z,45.70
2022-10-18T11:21:23.877Z,45.40
2022-10-18T11:23:52.222Z,45.10
2022-10-18T11:26:53.477Z,45.30
2022-10-18T11:29:40.472Z,46.30
2022-10-18T11:32:37.424Z,46.40
2022-10-18T11:35:14.395Z,46.40
2022-10-18T11:37:54.491Z,46.10
2022-10-18T11:40:41.168Z,46.30
2022-10-18T11:43:44.527Z,46.80
2022-10-18T11:46:18.802Z,47.40
2022-10-18T11:49:24.459Z,46.80
2022-10-18T11:52:14.368Z,47.50
2022-10-18T11:55:19.586Z,46.10
2022-10-18T11:58:24.653Z,46.10
2022-10-18T12:01:12.622Z,45.70
2022-10-18T12:03:56.108Z,45.30
2022-10-18T12:06:34.777Z,45.80
2022-10-18T12:09:19.399Z,45.50
2022-10-18T12:12:02.146Z,45.00
2022-10-18T12:14:43.096Z,44.60
2022-10-18T12:17:51.179Z,43.30
2022-10-18T12:20:35.078Z,44.60
2022-10-18T12:23:21.484Z,45.80
2022-10-18T12:25:57.217Z,45.70
2022-10-18T12:28:53.039Z,45.70
2022-10-18T12:31:34.358Z,46.30
2022-10-18T12:34:16.281Z,46.20
2022-10-18T12:36:56.424Z,46.70
2022-10-18T12:42:45.986Z,46.60
2022-10-18T12:45:14.217Z,47.10
2022-10-18T12:47:42.146Z,46.80
2022-10-18T12:50:33.229Z,46.50
2022-10-18T12:53:13.449Z,46.30
2022-10-18T12:55:44.970Z,48.10
2022-10-18T12:58:15.934Z,48.70
2022-10-18T13:00:44.345Z,48.50
2022-10-18T13:03:18.496Z,47.90
2022-10-18T13:05:54.407Z,48.00
2022-10-18T13:08:38.500Z,47.50
2022-10-18T13:11:09.857Z,47.40
2022-10-18T13:14:20.392Z,48.50
2022-10-18T13:17:08.431Z,48.80
2022-10-18T13:20:20.516Z,48.70
2022-10-18T13:23:09.783Z,49.40
2022-10-18T13:25:40.933Z,49.40
2022-10-18T13:28:43.410Z,49.40
2022-10-18T13:31:21.000Z,50.70
2022-10-18T13:33:50.600Z,51.80
2022-10-18T13:36:22.802Z,52.40
2022-10-18T13:38:56.237Z,55.10
2022-10-18T13:44:23.919Z,58.50
2022-10-18T13:46:52.066Z,61.40
2022-10-18T13:49:48.804Z,62.90
2022-10-18T13:53:03.544Z,64.50
2022-10-18T13:55:56.298Z,65.30
2022-10-18T13:59:13.694Z,65.00
2022-10-18T14:01:50.652Z,65.60
2022-10-18T14:05:16.541Z,67.00
2022-10-18T14:07:51.919Z,67.60
2022-10-18T14:11:01.303Z,68.50
2022-10-18T14:13:44.802Z,69.30
2022-10-18T14:16:36.240Z,69.10
2022-10-18T14:19:37.073Z,69.10
2022-10-18T14:22:13.667Z,69.00
2022-10-18T14:24:45.916Z,69.60
2022-10-18T14:27:26.626Z,70.00
2022-10-18T14:30:27.532Z,70.10
2022-10-18T14:32:56.041Z,69.90
2022-10-18T14:35:35.828Z,69.60
2022-10-18T14:38:04.467Z,69.50
2022-10-18T14:40:40.634Z,69.20
2022-10-18T14:43:18.946Z,68.90
2022-10-18T14:45:47.093Z,68.90
2022-10-18T14:48:22.485Z,68.30
2022-10-18T14:51:01.399Z,68.00
2022-10-18T14:53:36.173Z,67.80
2022-10-18T14:56:05.092Z,67.60
2022-10-18T14:58:35.195Z,66.20
2022-10-18T15:01:03.761Z,64.60
2022-10-18T15:03:36.532Z,63.00
2022-10-18T15:06:08.071Z,62.20
2022-10-18T15:08:43.562Z,61.50
2022-10-18T15:11:14.581Z,60.20
2022-10-18T15:14:07.267Z,59.30
2022-10-18T15:16:38.952Z,58.30
2022-10-18T15:19:29.584Z,57.90
2022-10-18T15:25:13.074Z,58.00
2022-10-18T15:27:45.660Z,57.80
2022-10-18T15:30:24.332Z,57.30
2022-10-18T15:33:02.916Z,57.00
2022-10-18T15:35:36.381Z,57.50
2022-10-18T15:38:21.286Z,58.20
2022-10-18T15:40:49.632Z,58.10
2022-10-18T15:43:29.318Z,59.10
2022-10-18T15:46:05.097Z,61.00
2022-10-18T15:48:44.619Z,62.90
2022-10-18T15:51:48.967Z,65.40
2022-10-18T15:54:30.847Z,68.10
2022-10-18T15:56:59.155Z,69.80
2022-10-18T15:59:31.181Z,71.80
2022-10-18T16:02:00.118Z,73.30
2022-10-18T16:04:33.415Z,74.70
2022-10-18T16:07:01.530Z,76.10
2022-10-18T16:09:29.947Z,77.20
2022-10-18T16:11:58.824Z,78.30
2022-10-18T16:14:27.132Z,79.30
2022-10-18T16:17:02.033Z,80.00
2022-10-18T16:19:31.306Z,81.50
2022-10-18T16:22:05.220Z,83.40
2022-10-18T16:24:34.519Z,85.00
2022-10-18T16:27:02.294Z,86.90
2022-10-18T16:29:32.442Z,88.70
2022-10-18T16:32:01.802Z,90.30
2022-10-18T16:34:32.762Z,90.90
2022-10-18T16:37:00.793Z,91.70
2022-10-18T16:39:30.613Z,92.20
2022-10-18T16:41:58.694Z,92.50
2022-10-18T16:44:26.596Z,93.00
2022-10-18T16:46:56.312Z,93.30
2022-10-18T16:49:26.268Z,94.00
2022-10-18T16:51:55.496Z,94.40
2022-10-18T16:54:24.055Z,94.70
2022-10-18T16:56:52.088Z,94.90
2022-10-18T16:59:29.562Z,95.20
2022-10-18T17:01:59.209Z,95.30
2022-10-18T17:04:27.174Z,95.50
2022-10-18T17:06:57.814Z,95.60
2022-10-18T17:09:25.922Z,95.90
2022-10-18T17:11:54.046Z,96.20
2022-10-18T17:14:22.286Z,96.40
2022-10-18T17:16:54.674Z,96.40
2022-10-18T17:19:25.756Z,96.50
2022-10-18T17:21:53.741Z,96.60
2022-10-18T17:24:22.171Z,96.90
2022-10-18T17:26:50.084Z,97.10
2022-10-18T17:29:18.287Z,97.40
2022-10-18T17:31:46.298Z,97.40
2022-10-18T17:34:17.604Z,97.60
2022-10-18T17:36:49.529Z,97.80
2022-10-18T17:39:17.514Z,97.80
2022-10-18T17:41:45.436Z,97.80
2022-10-18T17:44:13.302Z,97.90
2022-10-18T17:46:42.787Z,97.90
2022-10-18T17:49:11.200Z,98.00
2022-10-18T17:51:39.236Z,98.20
2022-10-18T17:54:08.214Z,98.00
2022-10-18T17:56:36.791Z,98.20
2022-10-18T17:59:04.730Z,98.20
2022-10-18T18:01:33.747Z,98.20
2022-10-18T18:04:03.214Z,98.10
2022-10-18T18:06:34.476Z,98.20
2022-10-18T18:09:08.392Z,98.40
2022-10-18T18:11:38.420Z,98.50
2022-10-18T18:14:10.218Z,98.40
2022-10-18T18:16:41.017Z,98.60
2022-10-18T18:19:10.297Z,98.50
2022-10-18T18:21:39.152Z,98.60
2022-10-18T18:24:08.314Z,98.60
2022-10-18T18:26:37.547Z,98.70
2022-10-18T18:29:05.933Z,98.90
2022-10-18T18:31:39.922Z,99.00
2022-10-18T18:34:10.776Z,98.90
2022-10-18T18:36:38.840Z,98.90
2022-10-18T18:39:09.206Z,98.80
2022-10-18T18:41:39.182Z,98.80
2022-10-18T18:44:07.591Z,98.80
2022-10-18T18:46:41.417Z,98.80
2022-10-18T18:49:10.762Z,98.70
2022-10-18T18:51:40.095Z,98.70
2022-10-18T18:54:10.650Z,98.70
2022-10-18T18:56:39.692Z,98.60
2022-10-18T18:59:09.333Z,98.70
2022-10-18T19:01:39.104Z,98.70
2022-10-18T19:04:08.860Z,98.80
2022-10-18T19:06:40.836Z,98.80
2022-10-18T19:09:22.817Z,98.90
2022-10-18T19:11:53.497Z,98.90
2022-10-18T19:16:51.975Z,99.00
2022-10-18T19:19:24.170Z,99.10
2022-10-18T19:21:58.166Z,99.10
2022-10-18T19:24:28.339Z,99.10
2022-10-18T19:26:59.919Z,99.30
2022-10-18T19:29:33.808Z,99.40
2022-10-18T19:32:05.080Z,99.60
2022-10-18T19:34:35.131Z,99.60
2022-10-18T19:37:03.540Z,99.60
2022-10-18T19:39:40.022Z,99.60
2022-10-18T19:42:11.472Z,99.50
2022-10-18T19:44:41.567Z,99.60
2022-10-18T19:47:13.844Z,99.60
2022-10-18T19:49:44.963Z,99.80
2022-10-18T19:52:13.541Z,99.90
2022-10-18T19:54:42.301Z,99.90
2022-10-18T19:57:13.583Z,99.90
2022-10-18T20:02:15.995Z,99.90
2022-10-18T20:04:44.239Z,99.90
2022-10-18T20:07:12.352Z,99.90
2022-10-18T20:09:40.752Z,99.90
2022-10-18T20:12:08.813Z,99.90
2022-10-18T20:14:36.937Z,99.90
2022-10-18T20:17:06.370Z,99.90
2022-10-18T20:19:34.494Z,99.90
2022-10-18T20:22:02.532Z,99.90
2022-10-18T20:24:30.842Z,99.90
2022-10-18T20:26:58.863Z,99.90
2022-10-18T20:29:26.915Z,99.90
2022-10-18T20:31:56.225Z,99.90
2022-10-18T20:34:26.574Z,99.90
2022-10-18T20:36:55.432Z,99.90
2022-10-18T20:39:23.843Z,99.90
2022-10-18T20:41:51.993Z,99.90
2022-10-18T20:44:21.334Z,99.90
2022-10-18T20:46:49.391Z,99.90
2022-10-18T20:49:17.542Z,99.90
2022-10-18T20:51:45.515Z,99.90
2022-10-18T20:54:13.975Z,99.90
2022-10-18T20:56:42.296Z,99.90
2022-10-18T20:59:10.898Z,99.90
2022-10-18T21:01:40.784Z,99.90
2022-10-18T21:04:10.212Z,99.90
2022-10-18T21:06:43.563Z,99.90
2022-10-18T21:09:20.129Z,99.90
2022-10-18T21:11:51.393Z,99.90
2022-10-18T21:14:22.180Z,99.90
2022-10-18T21:16:51.296Z,99.90
2022-10-18T21:19:20.994Z,99.90
2022-10-18T21:21:52.000Z,99.90
2022-10-18T21:24:21.149Z,99.90
2022-10-18T21:26:49.142Z,99.90
2022-10-18T21:29:22.573Z,99.90
2022-10-18T21:31:54.651Z,99.90
2022-10-18T21:34:22.900Z,99.90
2022-10-18T21:36:51.206Z,99.90
2022-10-18T21:41:51.116Z,99.90
2022-10-18T21:44:19.160Z,99.90
2022-10-18T21:46:47.806Z,99.90
2022-10-18T21:49:16.762Z,99.90
2022-10-18T21:51:45.387Z,99.90
2022-10-18T21:54:15.524Z,99.90
2022-10-18T21:56:44.121Z,99.90
2022-10-18T21:59:14.906Z,99.90
2022-10-18T22:01:44.983Z,99.90
2022-10-18T22:04:24.519Z,99.90
2022-10-18T22:06:53.049Z,99.90
2022-10-18T22:09:22.415Z,99.90
2022-10-18T22:11:54.185Z,99.90
2022-10-18T22:14:23.176Z,99.90
2022-10-18T22:16:51.323Z,99.90
2022-10-18T22:19:19.536Z,99.90
2022-10-18T22:21:47.799Z,99.90
2022-10-18T22:24:15.781Z,99.90
2022-10-18T22:26:45.807Z,99.90
2022-10-18T22:29:19.658Z,99.90
2022-10-18T22:31:50.111Z,99.90
2022-10-18T22:34:20.715Z,99.90
2022-10-18T22:36:48.889Z,99.90
2022-10-18T22:39:17.697Z,99.90
2022-10-18T22:41:47.108Z,99.90
2022-10-18T22:44:16.054Z,99.90
2022-10-18T22:46:44.196Z,99.90
2022-10-18T22:49:12.764Z,99.70
2022-10-18T22:51:41.000Z,99.40
2022-10-18T22:54:09.998Z,99.30
2022-10-18T22:56:38.367Z,99.30
2022-10-18T22:59:06.402Z,99.20
2022-10-18T23:01:35.487Z,99.00
2022-10-18T23:04:04.090Z,98.80
2022-10-18T23:06:35.959Z,98.80
2022-10-18T23:09:07.861Z,98.80
2022-10-18T23:11:37.344Z,98.80
2022-10-18T23:14:06.620Z,99.00
2022-10-18T23:16:34.957Z,99.20
2022-10-18T23:19:03.260Z,99.40
2022-10-18T23:21:31.621Z,99.40
2022-10-18T23:23:59.436Z,98.80
2022-10-18T23:26:28.407Z,98.90
2022-10-18T23:28:57.409Z,99.00
2022-10-18T23:31:32.005Z,99.10
2022-10-18T23:34:03.149Z,99.20
2022-10-18T23:36:33.097Z,99.20
2022-10-18T23:39:01.716Z,99.30
2022-10-18T23:41:29.688Z,99.30
2022-10-18T23:43:57.736Z,99.40
2022-10-18T23:46:25.641Z,99.40
2022-10-18T23:48:53.746Z,99.30
2022-10-18T23:51:21.751Z,99.30
2022-10-18T23:53:49.925Z,99.10
2022-10-18T23:56:17.861Z,98.80
2022-10-18T23:58:46.342Z,98.50
